Burnett, WI

7:59 PM CST on December 03, 2016 (GMT -0600)
Three Townships | | Change Station
Active Advisory: Winter Weather Advisory

Elev 942 ft 43.55 °N, 88.76 °W | Updated 9 minutes ago

Overcast
Overcast
30.1 °F
Feels Like 30 °F
N
0.0
Wind Variable Wind from West
Gusts 0.0 mph

Today
High -- | Low -- °F
--% Chance of Precip.
Yesterday
High -- | Low -- °F
Precip. -- in
Pressure 30.27 in
Visibility 10.0 miles
Clouds Overcast 3000 ft
Windchill 30 °F
Dew Point 27 °F
Humidity 87%
Rainfall 0.00 in
Snow Depth Not available.
7:10 AM 4:18 PM
Waxing Crescent, 18% visible
METAR KUNU 040135Z AUTO 00000KT 10SM OVC030 M01/M04 A3027 RMK AO2 T10151041
Pressure 30.27 in
Visibility 10.0 miles
Clouds Overcast 3000 ft
Windchill 30 °F
Dew Point 27 °F
Humidity 87%
Rainfall 0.00 in
Snow Depth Not available.
7:10 AM 4:18 PM
Waxing Crescent, 18% visible
METAR KUNU 040135Z AUTO 00000KT 10SM OVC030 M01/M04 A3027 RMK AO2 T10151041

10-Day Weather Forecast

Almanac

Astronomy

Dec. 03, 2016 Rise Set
Actual Time
Civil Twilight
Nautical Twilight
Astronomical Twilight
Moon
Length of Visible Light
Length of Day
Tomorrow will be .
, % of the Moon is Illuminated

Today's Extremes

State Highs State Lows

Community

WunderPhotos

Upload Photos

1,955,560 photos uploaded!

WunderBlog® & News

Nearby

Air Quality

  Air Quality AQ Index Pollutant
Not available.

Snow Depth

Station Depth Elevation

Earthquake Activity

City Distance Mag. Time & Date
Minimum magnitude displayed is 2.5.

Coastal Water Temperatures

Place Temperature

Stations

Nearby Weather Stations

Station Location Temp. Windchill Dew Point Humidity Wind Precip. Elev Updated Type
                   

Watches & Warnings

Winter Weather Advisory
Issued: 1:55 PM CST Dec. 3, 2016 – National Weather Service

... Winter Weather Advisory in effect from 7 am to 6 PM CST
Sunday...

The National Weather Service in Milwaukee/Sullivan has issued a
Winter Weather Advisory for snow... which is in effect from 7 am
to 6 PM CST Sunday.

* Timing... starting around 8 am at Fond Du Lac and Watertown.
Starting around 9 am at Milwaukee.

* Snow accumulations... 1 to 3 inches.

* Winds... south at 10 mph.

* Impacts... slippery spots on untreated roads creating hazardous
travel.

Precautionary/preparedness actions...

A Winter Weather Advisory for snow means that periods of snow
will cause primarily travel difficulties. Be prepared for snow
covered roads and limited visibilities... and use caution while
driving.



Marquardt